Time;durP1;ratioP1;P1;durP2;ratioP2;P2;SDS_P1;SDS_P2;PMS_P1;PMS_P2;Temp;Humidity;BMP_temperature;BMP_pressure;BME280_temperature;BME280_humidity;BME280_pressure;Samples;Min_cycle;Max_cycle;Signal;HPM_P1;HPM_P2
2021/10/24 00:00:19;;;;;;;11.43;8.93;;;8.00;99.90;;;;;;2064773;28;20041;-70
2021/10/24 00:01:19;;;;;;;14.73;8.50;;;8.00;99.90;;;;;;2067399;28;20022;-70
2021/10/24 00:02:21;;;;;;;10.88;9.02;;;8.00;99.90;;;;;;2072667;28;20482;-70
2021/10/24 00:03:22;;;;;;;11.93;8.80;;;8.00;99.90;;;;;;2071780;28;20076;-70
2021/10/24 00:04:22;;;;;;;12.68;8.55;;;8.00;99.90;;;;;;2072671;28;20075;-70
2021/10/24 00:05:23;;;;;;;11.57;8.38;;;8.00;99.90;;;;;;2072305;28;20099;-70
2021/10/24 00:06:24;;;;;;;10.13;9.00;;;8.00;99.90;;;;;;2066857;28;20018;-70
2021/10/24 00:07:24;;;;;;;12.40;8.43;;;8.00;99.90;;;;;;2071403;28;20046;-70
2021/10/24 00:08:25;;;;;;;10.10;8.20;;;8.00;99.90;;;;;;2063959;28;20027;-70
2021/10/24 00:09:26;;;;;;;12.82;8.43;;;8.00;99.90;;;;;;2067456;28;20409;-70
2021/10/24 00:10:26;;;;;;;11.63;8.52;;;8.00;99.90;;;;;;2071723;28;20471;-70
2021/10/24 00:11:27;;;;;;;11.65;8.25;;;8.00;99.90;;;;;;2065617;28;20518;-70
2021/10/24 00:12:27;;;;;;;12.32;8.40;;;8.00;99.90;;;;;;2064562;28;20026;-70
2021/10/24 00:13:29;;;;;;;14.10;8.40;;;8.00;99.90;;;;;;2075571;28;20098;-70
2021/10/24 00:14:30;;;;;;;11.57;8.52;;;7.90;99.90;;;;;;2075149;28;20635;-70
2021/10/24 00:15:30;;;;;;;11.48;7.70;;;8.00;99.90;;;;;;2064239;28;20785;-70
2021/10/24 00:16:32;;;;;;;13.75;8.68;;;7.90;99.90;;;;;;2072410;28;20106;-70
2021/10/24 00:17:32;;;;;;;13.80;8.65;;;8.00;99.90;;;;;;2072385;28;20046;-70
2021/10/24 00:18:33;;;;;;;9.13;7.72;;;8.00;99.90;;;;;;2071976;28;20109;-70
2021/10/24 00:19:33;;;;;;;10.50;8.13;;;8.00;99.90;;;;;;2067794;28;20033;-70
2021/10/24 00:20:34;;;;;;;13.35;7.68;;;8.00;99.90;;;;;;2064365;28;20030;-70
2021/10/24 00:21:35;;;;;;;12.77;8.35;;;8.00;99.90;;;;;;2064402;28;20102;-70
2021/10/24 00:22:36;;;;;;;13.73;8.27;;;8.00;99.90;;;;;;2064322;28;20031;-70
2021/10/24 00:23:36;;;;;;;10.15;7.78;;;8.00;99.90;;;;;;2064044;28;20419;-70
2021/10/24 00:24:37;;;;;;;11.05;7.95;;;8.00;99.90;;;;;;2064247;28;20041;-70
2021/10/24 00:25:38;;;;;;;11.25;8.32;;;7.90;99.90;;;;;;2064096;28;20038;-70
2021/10/24 00:26:38;;;;;;;12.85;7.72;;;8.00;99.90;;;;;;2064670;28;20022;-70
2021/10/24 00:27:39;;;;;;;10.10;8.25;;;7.90;99.90;;;;;;2065585;28;20494;-70
2021/10/24 00:28:39;;;;;;;10.18;7.72;;;7.90;99.90;;;;;;2069791;28;20508;-70
2021/10/24 00:29:40;;;;;;;15.07;7.10;;;7.90;99.90;;;;;;2070576;28;20060;-70
2021/10/24 00:30:40;;;;;;;9.50;7.38;;;7.90;99.90;;;;;;2070073;28;20109;-70
2021/10/24 00:31:41;;;;;;;13.45;7.50;;;7.90;99.90;;;;;;2072569;28;20022;-70
2021/10/24 00:32:41;;;;;;;10.48;7.68;;;7.90;99.90;;;;;;2064951;28;20459;-70
2021/10/24 00:33:42;;;;;;;13.38;8.23;;;7.90;99.90;;;;;;2065929;28;20021;-70
2021/10/24 00:34:43;;;;;;;11.43;7.43;;;7.90;99.90;;;;;;2063365;28;20349;-70
2021/10/24 00:35:43;;;;;;;11.23;8.15;;;7.90;99.90;;;;;;2064158;28;20530;-70
2021/10/24 00:36:44;;;;;;;14.48;8.32;;;7.90;99.90;;;;;;2071398;28;20053;-70
2021/10/24 00:37:45;;;;;;;12.32;7.72;;;7.90;99.90;;;;;;2071720;28;20930;-70
2021/10/24 00:38:45;;;;;;;9.55;7.20;;;7.90;99.90;;;;;;2066127;28;20029;-70
2021/10/24 00:39:46;;;;;;;10.63;7.65;;;8.00;99.90;;;;;;2071077;28;20536;-70
2021/10/24 00:40:47;;;;;;;11.23;8.13;;;7.90;99.90;;;;;;2065154;28;20034;-70
2021/10/24 00:41:47;;;;;;;10.18;7.97;;;7.90;99.90;;;;;;2064290;28;20550;-70
2021/10/24 00:42:51;;;;;;;14.35;7.28;;;7.90;99.90;;;;;;2064111;28;20494;-70
2021/10/24 00:43:52;;;;;;;9.20;6.93;;;7.90;99.90;;;;;;2064105;28;20518;-70
2021/10/24 00:44:52;;;;;;;13.43;8.15;;;7.90;99.90;;;;;;2063943;28;20407;-70
2021/10/24 00:45:53;;;;;;;10.13;7.40;;;7.90;99.90;;;;;;2064326;28;20057;-70
2021/10/24 00:46:55;;;;;;;9.90;7.50;;;7.90;99.90;;;;;;2064039;28;20394;-70
2021/10/24 00:47:56;;;;;;;9.50;7.22;;;7.90;99.90;;;;;;2064292;28;20077;-70
2021/10/24 00:48:57;;;;;;;11.70;8.13;;;7.90;99.90;;;;;;2063261;28;20097;-70
2021/10/24 00:49:58;;;;;;;10.90;7.50;;;7.90;99.90;;;;;;2068282;28;20031;-70
2021/10/24 00:50:58;;;;;;;9.00;7.32;;;7.90;99.90;;;;;;2063892;28;20462;-70
2021/10/24 00:51:59;;;;;;;11.10;7.00;;;7.90;99.90;;;;;;2064107;28;20116;-70
2021/10/24 00:53:05;;;;;;;11.00;7.40;;;7.90;99.90;;;;;;2064234;28;20034;-70
2021/10/24 00:54:07;;;;;;;10.93;7.60;;;7.90;99.90;;;;;;2063461;28;20030;-70
2021/10/24 00:55:08;;;;;;;9.73;7.00;;;7.90;99.90;;;;;;2063381;28;20560;-70
2021/10/24 00:56:10;;;;;;;11.23;7.18;;;7.90;99.90;;;;;;2068712;28;20034;-70
2021/10/24 00:57:10;;;;;;;9.45;7.15;;;7.90;99.90;;;;;;2065335;28;20080;-70
2021/10/24 00:58:14;;;;;;;10.35;7.50;;;7.90;99.90;;;;;;2067643;28;20030;-70
2021/10/24 00:59:15;;;;;;;9.30;6.47;;;7.90;99.90;;;;;;2067182;28;20108;-70
2021/10/24 01:00:16;;;;;;;10.10;8.05;;;7.90;99.90;;;;;;2064395;28;20032;-70
2021/10/24 01:01:16;;;;;;;7.53;6.80;;;7.90;99.90;;;;;;2066316;28;20030;-70
2021/10/24 01:02:17;;;;;;;10.60;7.18;;;7.90;99.90;;;;;;2071669;28;20115;-70
2021/10/24 01:03:18;;;;;;;9.43;6.80;;;7.90;99.90;;;;;;2071715;28;20033;-70
2021/10/24 01:04:19;;;;;;;13.40;7.72;;;7.90;99.90;;;;;;2072253;28;20216;-70
2021/10/24 01:05:20;;;;;;;10.70;7.38;;;7.80;99.90;;;;;;2071784;28;20553;-70
2021/10/24 01:06:20;;;;;;;12.82;7.63;;;7.90;99.90;;;;;;2071436;28;20018;-70
2021/10/24 01:07:21;;;;;;;10.45;7.15;;;7.90;99.90;;;;;;2071194;28;20034;-70
2021/10/24 01:08:21;;;;;;;11.52;7.28;;;7.90;99.90;;;;;;2063225;28;20019;-70
2021/10/24 01:09:23;;;;;;;10.63;6.60;;;7.90;99.90;;;;;;2072367;28;20022;-70
2021/10/24 01:10:24;;;;;;;11.48;7.10;;;7.90;99.90;;;;;;2071470;28;20025;-70
2021/10/24 01:11:27;;;;;;;9.98;7.30;;;7.90;99.90;;;;;;2069957;28;20022;-70
2021/10/24 01:12:28;;;;;;;14.90;7.03;;;7.90;99.90;;;;;;2069791;28;20475;-70
2021/10/24 01:13:30;;;;;;;8.48;6.55;;;7.90;99.90;;;;;;2067048;28;20395;-70
2021/10/24 01:14:30;;;;;;;10.48;6.93;;;7.90;99.90;;;;;;2065872;28;20419;-70
2021/10/24 01:15:31;;;;;;;9.65;7.10;;;7.90;99.90;;;;;;2063443;28;20031;-70
2021/10/24 01:16:37;;;;;;;12.20;6.60;;;7.90;99.90;;;;;;2063759;28;20093;-70
2021/10/24 01:17:38;;;;;;;9.27;6.47;;;7.90;99.90;;;;;;2066246;28;20033;-70
2021/10/24 01:18:39;;;;;;;9.55;7.25;;;7.90;99.90;;;;;;2070741;28;20513;-70
2021/10/24 01:19:40;;;;;;;8.90;6.68;;;7.90;99.90;;;;;;2070016;28;20030;-71
2021/10/24 01:20:41;;;;;;;12.45;6.53;;;7.90;99.90;;;;;;2071273;28;20054;-70
2021/10/24 01:21:41;;;;;;;9.60;6.70;;;7.90;99.90;;;;;;2078679;28;20076;-70
2021/10/24 01:22:42;;;;;;;11.45;6.47;;;7.90;99.90;;;;;;2069162;28;20026;-70
2021/10/24 01:23:43;;;;;;;12.70;7.05;;;7.90;99.90;;;;;;2070742;28;20470;-70
2021/10/24 01:24:44;;;;;;;7.80;5.95;;;7.90;99.90;;;;;;2071556;28;20034;-70
2021/10/24 01:25:45;;;;;;;11.73;6.68;;;7.90;99.90;;;;;;2067115;28;20022;-70
2021/10/24 01:26:45;;;;;;;11.30;6.97;;;7.90;99.90;;;;;;2063704;28;20501;-70
2021/10/24 01:27:47;;;;;;;11.50;6.72;;;7.90;99.90;;;;;;2069598;28;20069;-70
2021/10/24 01:28:48;;;;;;;8.60;6.22;;;7.90;99.90;;;;;;2065899;28;20026;-70
2021/10/24 01:29:49;;;;;;;9.43;7.32;;;7.90;99.90;;;;;;2060615;28;20109;-71
2021/10/24 01:30:51;;;;;;;10.18;6.13;;;7.90;99.90;;;;;;2065629;28;20027;-70
2021/10/24 01:31:52;;;;;;;7.70;6.18;;;7.90;99.90;;;;;;2070584;28;20071;-70
2021/10/24 01:32:53;;;;;;;9.05;6.18;;;7.90;99.90;;;;;;2071998;28;20022;-70
2021/10/24 01:33:53;;;;;;;9.00;6.07;;;7.90;99.90;;;;;;2066631;28;20038;-70
2021/10/24 01:34:58;;;;;;;11.05;6.88;;;7.90;99.90;;;;;;2063710;28;20027;-70
2021/10/24 01:36:02;;;;;;;9.40;6.25;;;7.90;99.90;;;;;;2064733;28;20010;-70
2021/10/24 01:37:03;;;;;;;10.27;5.82;;;7.90;99.90;;;;;;2069049;28;20053;-70
2021/10/24 01:38:03;;;;;;;9.48;6.18;;;7.90;99.90;;;;;;2069585;28;20026;-70
2021/10/24 01:39:04;;;;;;;8.93;5.57;;;8.00;99.90;;;;;;2070482;28;20058;-70
2021/10/24 01:40:08;;;;;;;9.70;6.53;;;8.00;99.90;;;;;;2070903;28;20109;-70
2021/10/24 01:41:10;;;;;;;7.65;5.70;;;8.00;99.90;;;;;;2072158;28;20421;-70
2021/10/24 01:42:11;;;;;;;8.07;6.03;;;8.00;99.90;;;;;;2065013;28;20054;-70
2021/10/24 01:43:11;;;;;;;9.88;6.57;;;8.00;99.90;;;;;;2065067;28;20477;-70
2021/10/24 01:44:15;;;;;;;10.82;6.53;;;8.00;99.90;;;;;;2063652;28;20367;-70
2021/10/24 01:45:17;;;;;;;11.80;6.47;;;8.00;99.90;;;;;;2063450;28;20014;-70
2021/10/24 01:46:19;;;;;;;8.73;6.50;;;8.00;99.90;;;;;;2063532;28;20077;-70
2021/10/24 01:47:19;;;;;;;9.88;6.43;;;8.00;99.90;;;;;;2063554;28;20022;-70
2021/10/24 01:48:22;;;;;;;10.52;6.45;;;8.00;99.90;;;;;;2063351;28;20022;-70
2021/10/24 01:49:22;;;;;;;7.53;5.70;;;8.00;99.90;;;;;;2063725;28;20030;-70
2021/10/24 01:50:23;;;;;;;11.95;5.97;;;8.00;99.90;;;;;;2062604;28;20032;-71
2021/10/24 01:51:24;;;;;;;8.00;5.72;;;8.00;99.90;;;;;;2065754;28;20379;-70
2021/10/24 01:52:24;;;;;;;10.90;6.68;;;8.00;99.90;;;;;;2071836;28;20022;-70
2021/10/24 01:53:28;;;;;;;8.77;6.78;;;8.00;99.90;;;;;;2065783;28;20097;-70
2021/10/24 01:54:29;;;;;;;7.00;6.15;;;8.00;99.90;;;;;;2063244;28;20455;-70
2021/10/24 01:55:31;;;;;;;13.45;6.32;;;8.00;99.90;;;;;;2063647;28;20419;-70
2021/10/24 01:56:32;;;;;;;8.80;6.13;;;8.00;99.90;;;;;;2063753;28;20057;-70
2021/10/24 01:57:32;;;;;;;9.15;6.28;;;8.00;99.90;;;;;;2067751;28;20025;-70
2021/10/24 01:58:33;;;;;;;9.00;6.18;;;8.00;99.90;;;;;;2069061;28;20026;-71
2021/10/24 01:59:33;;;;;;;8.13;6.18;;;8.00;99.90;;;;;;2064380;28;20038;-70
2021/10/24 02:00:34;;;;;;;8.00;6.35;;;8.00;99.90;;;;;;2063772;28;20037;-70
2021/10/24 02:01:35;;;;;;;9.63;5.95;;;7.90;99.90;;;;;;2065131;28;20033;-70
2021/10/24 02:02:35;;;;;;;12.13;6.47;;;7.90;99.90;;;;;;2063898;28;20113;-70
2021/10/24 02:03:36;;;;;;;17.63;6.60;;;8.00;99.90;;;;;;2071815;28;20022;-70
2021/10/24 02:04:36;;;;;;;8.70;6.18;;;7.90;99.90;;;;;;2071569;28;20057;-70
2021/10/24 02:05:39;;;;;;;10.27;5.93;;;7.90;99.90;;;;;;2071409;28;20129;-70
2021/10/24 02:06:40;;;;;;;9.95;6.20;;;7.90;99.90;;;;;;2071645;28;20033;-70
2021/10/24 02:07:40;;;;;;;8.73;6.10;;;7.90;99.90;;;;;;2069223;28;20486;-70
2021/10/24 02:08:41;;;;;;;7.13;5.85;;;7.90;99.90;;;;;;2069959;28;20050;-70
2021/10/24 02:09:41;;;;;;;10.32;6.20;;;7.90;99.90;;;;;;2065987;28;20037;-70
2021/10/24 02:10:43;;;;;;;8.65;6.13;;;7.90;99.90;;;;;;2063699;28;20026;-70
2021/10/24 02:11:43;;;;;;;8.32;6.03;;;7.90;99.90;;;;;;2068174;28;20465;-70
2021/10/24 02:12:45;;;;;;;9.75;6.70;;;7.90;99.90;;;;;;2067593;28;20034;-70
2021/10/24 02:13:45;;;;;;;11.85;6.82;;;7.90;99.90;;;;;;2063448;28;20030;-70
2021/10/24 02:14:46;;;;;;;9.85;6.45;;;7.90;99.90;;;;;;2063815;28;20056;-70
2021/10/24 02:15:47;;;;;;;8.93;6.43;;;7.90;99.90;;;;;;2063266;28;20062;-70
2021/10/24 02:16:47;;;;;;;10.48;6.57;;;7.90;99.90;;;;;;2063782;28;20018;-70
2021/10/24 02:17:48;;;;;;;8.02;6.15;;;7.90;99.90;;;;;;2063448;28;20106;-70
2021/10/24 02:18:48;;;;;;;11.13;6.60;;;7.90;99.90;;;;;;2070210;28;20029;-70
2021/10/24 02:19:49;;;;;;;9.73;5.93;;;7.90;99.90;;;;;;2062656;28;20061;-70
2021/10/24 02:20:50;;;;;;;8.70;6.47;;;7.90;99.90;;;;;;2066301;28;21010;-70
2021/10/24 02:21:50;;;;;;;12.38;6.00;;;7.90;99.90;;;;;;2071702;28;20034;-70
2021/10/24 02:22:51;;;;;;;13.68;6.78;;;7.90;99.90;;;;;;2071576;28;20021;-70
2021/10/24 02:23:51;;;;;;;9.23;6.97;;;7.80;99.90;;;;;;2071400;28;20112;-70
2021/10/24 02:24:52;;;;;;;10.10;6.60;;;7.80;99.90;;;;;;2071720;28;20038;-70
2021/10/24 02:25:52;;;;;;;7.85;6.15;;;7.80;99.90;;;;;;2065053;28;20022;-70
2021/10/24 02:26:53;;;;;;;10.68;6.50;;;7.90;99.90;;;;;;2062962;28;20044;-70
2021/10/24 02:27:54;;;;;;;7.05;5.85;;;7.80;99.90;;;;;;2063201;28;20442;-70
2021/10/24 02:28:55;;;;;;;10.48;6.25;;;7.80;99.90;;;;;;2070417;28;20375;-70
2021/10/24 02:29:56;;;;;;;9.20;6.20;;;7.80;99.90;;;;;;2064981;28;20054;-70
2021/10/24 02:30:57;;;;;;;10.75;6.03;;;7.80;99.90;;;;;;2069654;28;20025;-70
2021/10/24 02:31:57;;;;;;;11.60;5.70;;;7.80;99.90;;;;;;2070079;28;20497;-70
2021/10/24 02:32:58;;;;;;;8.50;5.90;;;7.80;99.90;;;;;;2063643;28;20554;-70
2021/10/24 02:33:58;;;;;;;7.85;6.13;;;7.80;99.90;;;;;;2063484;28;20037;-70
2021/10/24 02:34:59;;;;;;;8.90;5.95;;;7.80;99.90;;;;;;2063307;28;20026;-70
2021/10/24 02:36:00;;;;;;;9.75;5.32;;;7.80;99.90;;;;;;2064568;28;20469;-70
2021/10/24 02:37:00;;;;;;;13.45;6.03;;;7.80;99.90;;;;;;2070226;28;20026;-70
2021/10/24 02:38:01;;;;;;;9.77;5.85;;;7.80;99.90;;;;;;2070978;28;20060;-70
2021/10/24 02:39:03;;;;;;;10.48;6.00;;;7.80;99.90;;;;;;2069281;28;20485;-70
2021/10/24 02:40:05;;;;;;;8.73;6.78;;;7.70;99.90;;;;;;2070468;28;20446;-70
2021/10/24 02:41:06;;;;;;;11.55;6.35;;;7.80;99.90;;;;;;2062930;28;20041;-70
2021/10/24 02:42:06;;;;;;;12.35;6.55;;;7.70;99.90;;;;;;2063513;28;20554;-70
2021/10/24 02:43:07;;;;;;;9.88;6.07;;;7.80;99.90;;;;;;2063389;28;20134;-70
2021/10/24 02:44:07;;;;;;;9.13;5.90;;;7.70;99.90;;;;;;2069400;28;20034;-70
2021/10/24 02:45:09;;;;;;;11.02;6.22;;;7.80;99.90;;;;;;2068598;28;20030;-70
2021/10/24 02:46:09;;;;;;;8.00;6.13;;;7.80;99.90;;;;;;2063464;28;20026;-70
2021/10/24 02:47:10;;;;;;;9.57;6.10;;;7.70;99.90;;;;;;2063304;28;20030;-70
2021/10/24 02:48:10;;;;;;;8.35;6.15;;;7.80;99.90;;;;;;2063304;28;20039;-70
2021/10/24 02:49:11;;;;;;;7.38;5.72;;;7.70;99.90;;;;;;2063178;28;20026;-70
2021/10/24 02:50:12;;;;;;;11.27;6.13;;;7.80;99.90;;;;;;2063356;28;20426;-70
2021/10/24 02:51:13;;;;;;;10.95;6.43;;;7.80;99.90;;;;;;2063128;28;20550;-70
2021/10/24 02:52:14;;;;;;;8.48;6.13;;;7.70;99.90;;;;;;2063480;28;20111;-70
2021/10/24 02:53:14;;;;;;;9.35;6.22;;;7.80;99.90;;;;;;2065368;28;20034;-70
2021/10/24 02:54:16;;;;;;;8.35;5.80;;;7.80;99.90;;;;;;2070969;28;20069;-70
2021/10/24 02:55:16;;;;;;;8.05;6.07;;;7.80;99.90;;;;;;2071405;28;20363;-70
2021/10/24 02:56:17;;;;;;;7.43;5.88;;;7.80;99.90;;;;;;2071029;28;20014;-70
2021/10/24 02:57:17;;;;;;;12.05;5.93;;;7.80;99.90;;;;;;2071283;28;20034;-70
2021/10/24 02:58:18;;;;;;;9.80;5.78;;;7.80;99.90;;;;;;2064954;28;20038;-70
2021/10/24 02:59:19;;;;;;;11.35;5.97;;;7.80;99.90;;;;;;2067311;28;20045;-70
2021/10/24 03:00:20;;;;;;;8.57;5.82;;;7.80;99.90;;;;;;2063626;28;20106;-70
2021/10/24 03:01:20;;;;;;;8.25;6.10;;;7.80;99.90;;;;;;2066587;28;20022;-70
2021/10/24 03:02:21;;;;;;;12.68;7.28;;;7.70;99.90;;;;;;2071499;28;20022;-70
2021/10/24 03:03:22;;;;;;;8.20;5.97;;;7.70;99.90;;;;;;2070314;28;20026;-70
2021/10/24 03:04:23;;;;;;;8.60;6.22;;;7.70;99.90;;;;;;2070705;28;20084;-70
2021/10/24 03:05:23;;;;;;;8.25;5.72;;;7.70;99.90;;;;;;2071368;28;20026;-70
2021/10/24 03:06:24;;;;;;;9.48;6.38;;;7.70;99.90;;;;;;2067327;28;20023;-70
2021/10/24 03:07:24;;;;;;;9.48;5.93;;;7.70;99.90;;;;;;2071033;28;20022;-70
2021/10/24 03:08:25;;;;;;;9.57;6.35;;;7.70;99.90;;;;;;2062940;28;20106;-70
2021/10/24 03:09:26;;;;;;;10.02;6.53;;;7.70;99.90;;;;;;2063284;28;20023;-70
2021/10/24 03:10:26;;;;;;;7.85;5.85;;;7.70;99.90;;;;;;2063614;28;20472;-71
2021/10/24 03:11:27;;;;;;;11.10;6.55;;;7.70;99.90;;;;;;2063342;28;20022;-70
2021/10/24 03:12:27;;;;;;;10.02;6.10;;;7.70;99.90;;;;;;2067334;28;20061;-70
2021/10/24 03:13:28;;;;;;;9.57;6.70;;;7.70;99.90;;;;;;2062738;28;20026;-70
2021/10/24 03:14:29;;;;;;;8.38;5.88;;;7.70;99.90;;;;;;2062341;28;20049;-70
2021/10/24 03:15:29;;;;;;;9.23;6.47;;;7.70;99.90;;;;;;2069091;28;20052;-70
2021/10/24 03:16:31;;;;;;;8.95;6.28;;;7.70;99.90;;;;;;2063242;28;20085;-70
2021/10/24 03:17:32;;;;;;;9.38;6.25;;;7.70;99.90;;;;;;2067123;28;20112;-70
2021/10/24 03:18:32;;;;;;;11.23;6.43;;;7.70;99.90;;;;;;2070786;28;20021;-70
2021/10/24 03:19:33;;;;;;;10.95;6.47;;;7.70;99.90;;;;;;2063618;28;20030;-70
2021/10/24 03:20:33;;;;;;;8.10;6.05;;;7.70;99.90;;;;;;2064215;28;20022;-70
2021/10/24 03:21:34;;;;;;;13.18;6.75;;;7.70;99.90;;;;;;2063520;28;20054;-70
2021/10/24 03:22:35;;;;;;;8.07;6.15;;;7.70;99.90;;;;;;2068113;28;20030;-70
2021/10/24 03:23:35;;;;;;;10.88;6.50;;;7.70;99.90;;;;;;2071192;28;20458;-70
2021/10/24 03:24:36;;;;;;;7.75;5.55;;;7.70;99.90;;;;;;2071482;28;20029;-70
2021/10/24 03:25:37;;;;;;;10.25;6.63;;;7.70;99.90;;;;;;2064824;28;20026;-70
2021/10/24 03:26:37;;;;;;;9.05;6.32;;;7.60;99.90;;;;;;2068977;28;20065;-70
2021/10/24 03:27:38;;;;;;;8.45;5.88;;;7.70;99.90;;;;;;2064509;28;20494;-70
2021/10/24 03:28:38;;;;;;;11.15;6.28;;;7.70;99.90;;;;;;2062557;28;20049;-70
2021/10/24 03:29:39;;;;;;;9.43;6.25;;;7.70;99.90;;;;;;2064921;28;20064;-70
2021/10/24 03:30:39;;;;;;;10.13;6.00;;;7.70;99.90;;;;;;2065740;28;20073;-70
2021/10/24 03:31:40;;;;;;;10.88;6.57;;;7.70;99.90;;;;;;2069853;28;20022;-70
2021/10/24 03:32:41;;;;;;;11.68;6.85;;;7.60;99.90;;;;;;2070009;28;20033;-70
2021/10/24 03:33:41;;;;;;;11.60;6.43;;;7.70;99.90;;;;;;2068280;28;20471;-70
2021/10/24 03:34:43;;;;;;;8.48;5.90;;;7.70;99.90;;;;;;2062852;28;20582;-70
2021/10/24 03:35:44;;;;;;;10.95;6.22;;;7.70;99.90;;;;;;2064339;28;20080;-70
2021/10/24 03:36:47;;;;;;;9.32;6.38;;;7.70;99.90;;;;;;2068916;28;20109;-70
2021/10/24 03:37:48;;;;;;;9.80;6.38;;;7.70;99.90;;;;;;2071225;28;20038;-70
2021/10/24 03:38:48;;;;;;;11.55;6.28;;;7.60;99.90;;;;;;2065999;28;20032;-70
2021/10/24 03:39:50;;;;;;;11.00;6.55;;;7.60;99.90;;;;;;2069277;28;20473;-70
2021/10/24 03:40:51;;;;;;;7.70;6.25;;;7.70;99.90;;;;;;2070844;28;20040;-70
2021/10/24 03:41:52;;;;;;;10.48;6.20;;;7.70;99.90;;;;;;2069099;28;20030;-70
2021/10/24 03:42:52;;;;;;;8.98;6.65;;;7.70;99.90;;;;;;2072112;28;20033;-70
2021/10/24 03:43:53;;;;;;;11.63;6.68;;;7.70;99.90;;;;;;2071558;28;20390;-70
2021/10/24 03:44:54;;;;;;;12.02;7.28;;;7.60;99.90;;;;;;2071814;28;20026;-70
2021/10/24 03:45:54;;;;;;;10.07;6.55;;;7.60;99.90;;;;;;2072283;28;20030;-70
2021/10/24 03:46:55;;;;;;;10.65;6.43;;;7.60;99.90;;;;;;2067447;28;20034;-70
2021/10/24 03:47:56;;;;;;;11.80;7.32;;;7.60;99.90;;;;;;2064553;28;20076;-70
2021/10/24 03:48:59;;;;;;;9.75;6.90;;;7.60;99.90;;;;;;2064077;28;20098;-70
2021/10/24 03:50:00;;;;;;;8.73;6.30;;;7.60;99.90;;;;;;2064594;28;20030;-70
2021/10/24 03:51:00;;;;;;;7.28;6.30;;;7.60;99.90;;;;;;2064720;28;20026;-70
2021/10/24 03:52:01;;;;;;;8.02;5.57;;;7.60;99.90;;;;;;2064858;28;20364;-70
2021/10/24 03:53:02;;;;;;;12.68;6.75;;;7.60;99.90;;;;;;2066560;28;20027;-70
2021/10/24 03:54:02;;;;;;;11.85;6.90;;;7.60;99.90;;;;;;2072299;28;20032;-70
2021/10/24 03:55:09;;;;;;;9.55;6.32;;;7.60;99.90;;;;;;2068697;28;20064;-70
2021/10/24 03:56:10;;;;;;;9.82;6.85;;;7.60;99.90;;;;;;2071216;28;20022;-70
2021/10/24 03:57:10;;;;;;;8.77;6.50;;;7.60;99.90;;;;;;2066097;28;20530;-70
2021/10/24 03:58:11;;;;;;;8.85;6.68;;;7.60;99.90;;;;;;2067128;28;20036;-70
2021/10/24 03:59:12;;;;;;;9.63;6.78;;;7.60;99.90;;;;;;2067101;28;20022;-70
2021/10/24 04:00:13;;;;;;;10.48;6.70;;;7.60;99.90;;;;;;2063964;28;20517;-70
2021/10/24 04:01:13;;;;;;;10.60;6.78;;;7.60;99.90;;;;;;2067253;28;20031;-70
2021/10/24 04:02:15;;;;;;;10.80;6.70;;;7.60;99.90;;;;;;2072422;28;20032;-70
2021/10/24 04:03:16;;;;;;;10.40;7.55;;;7.60;99.90;;;;;;2072757;28;20466;-70
2021/10/24 04:04:16;;;;;;;8.20;6.47;;;7.60;99.90;;;;;;2072409;28;20465;-70
2021/10/24 04:05:17;;;;;;;11.57;7.10;;;7.60;99.90;;;;;;2071877;28;20101;-70
2021/10/24 04:06:17;;;;;;;10.85;6.60;;;7.60;99.90;;;;;;2067950;28;20451;-70
2021/10/24 04:07:18;;;;;;;8.27;6.82;;;7.50;99.90;;;;;;2070615;28;20028;-70
2021/10/24 04:08:18;;;;;;;12.38;7.18;;;7.50;99.90;;;;;;2064403;28;20027;-70
2021/10/24 04:09:19;;;;;;;10.23;6.40;;;7.50;99.90;;;;;;2069299;28;20493;-70
2021/10/24 04:10:21;;;;;;;8.85;6.43;;;7.50;99.90;;;;;;2064634;28;20030;-70
2021/10/24 04:11:22;;;;;;;10.23;6.57;;;7.50;99.90;;;;;;2064806;28;20386;-70
2021/10/24 04:12:22;;;;;;;9.77;6.70;;;7.50;99.90;;;;;;2064353;28;20040;-70
2021/10/24 04:13:24;;;;;;;9.07;6.60;;;7.50;99.90;;;;;;2064634;28;20026;-70
2021/10/24 04:14:25;;;;;;;9.02;6.60;;;7.50;99.90;;;;;;2067520;28;20117;-70
2021/10/24 04:15:26;;;;;;;10.07;6.68;;;7.50;99.90;;;;;;2071667;28;20029;-70
2021/10/24 04:16:26;;;;;;;11.40;7.05;;;7.50;99.90;;;;;;2064643;28;20023;-70
2021/10/24 04:17:27;;;;;;;9.55;6.80;;;7.50;99.90;;;;;;2067047;28;20053;-70
2021/10/24 04:18:28;;;;;;;10.73;7.05;;;7.50;99.90;;;;;;2072086;28;20133;-70
2021/10/24 04:19:28;;;;;;;10.95;6.70;;;7.50;99.90;;;;;;2072400;28;20389;-70
2021/10/24 04:20:29;;;;;;;14.27;6.40;;;7.50;99.90;;;;;;2072257;28;20026;-70
2021/10/24 04:21:30;;;;;;;10.75;7.32;;;7.50;99.90;;;;;;2072557;28;20446;-70
2021/10/24 04:22:31;;;;;;;10.90;7.13;;;7.50;99.90;;;;;;2071951;28;20352;-70
2021/10/24 04:23:31;;;;;;;10.40;7.20;;;7.50;99.90;;;;;;2072493;28;20056;-70
2021/10/24 04:24:32;;;;;;;12.80;7.82;;;7.50;99.90;;;;;;2064554;28;20079;-70
2021/10/24 04:25:32;;;;;;;9.02;6.55;;;7.50;99.90;;;;;;2067154;28;20026;-71
2021/10/24 04:26:33;;;;;;;9.52;6.57;;;7.50;99.90;;;;;;2064324;28;20041;-70
2021/10/24 04:27:34;;;;;;;8.55;6.80;;;7.50;99.90;;;;;;2069640;28;20032;-70
2021/10/24 04:28:35;;;;;;;12.48;7.22;;;7.50;99.90;;;;;;2072140;28;20018;-70
2021/10/24 04:29:35;;;;;;;11.27;7.05;;;7.50;99.90;;;;;;2072232;28;20033;-70
2021/10/24 04:30:36;;;;;;;13.10;6.85;;;7.50;99.90;;;;;;2072340;28;20037;-70
2021/10/24 04:31:36;;;;;;;10.10;6.85;;;7.50;99.90;;;;;;2072089;28;20050;-70
2021/10/24 04:32:39;;;;;;;10.73;6.63;;;7.40;99.90;;;;;;2070646;28;20107;-70
2021/10/24 04:33:39;;;;;;;9.60;6.22;;;7.40;99.90;;;;;;2069826;28;20385;-70
2021/10/24 04:34:40;;;;;;;11.77;6.55;;;7.50;99.90;;;;;;2064262;28;20026;-70
2021/10/24 04:35:40;;;;;;;8.68;6.72;;;7.40;99.90;;;;;;2063787;28;20101;-70
2021/10/24 04:36:41;;;;;;;9.20;7.07;;;7.40;99.90;;;;;;2070208;28;20026;-70
2021/10/24 04:37:42;;;;;;;11.48;6.80;;;7.40;99.90;;;;;;2072151;28;20417;-70
2021/10/24 04:38:42;;;;;;;10.38;6.68;;;7.50;99.90;;;;;;2067555;28;20034;-70
2021/10/24 04:39:43;;;;;;;8.95;6.07;;;7.40;99.90;;;;;;2064139;28;20030;-70
2021/10/24 04:40:44;;;;;;;12.15;6.53;;;7.40;99.90;;;;;;2064102;28;20101;-70
2021/10/24 04:41:45;;;;;;;11.35;6.47;;;7.50;99.90;;;;;;2071739;28;20030;-70
2021/10/24 04:42:45;;;;;;;9.15;6.65;;;7.50;99.90;;;;;;2069576;28;20030;-70
2021/10/24 04:43:46;;;;;;;8.38;6.72;;;7.50;99.90;;;;;;2071560;28;20026;-70
2021/10/24 04:44:47;;;;;;;8.93;6.20;;;7.50;99.90;;;;;;2071612;28;20049;-70
2021/10/24 04:45:47;;;;;;;11.73;6.55;;;7.50;99.90;;;;;;2071906;28;20033;-70
2021/10/24 04:46:48;;;;;;;8.93;6.03;;;7.50;99.90;;;;;;2072241;28;20080;-70
2021/10/24 04:47:48;;;;;;;8.07;6.13;;;7.50;99.90;;;;;;2072119;28;20038;-70
2021/10/24 04:48:49;;;;;;;13.05;6.47;;;7.50;99.90;;;;;;2071917;28;20026;-70
2021/10/24 04:49:49;;;;;;;8.07;6.15;;;7.50;99.90;;;;;;2071588;28;20025;-70
2021/10/24 04:50:50;;;;;;;9.95;6.97;;;7.50;99.90;;;;;;2071375;28;20045;-70
2021/10/24 04:51:50;;;;;;;9.98;6.25;;;7.50;99.90;;;;;;2066847;28;20469;-71
2021/10/24 04:52:51;;;;;;;11.18;6.43;;;7.50;99.90;;;;;;2070468;28;20463;-70
2021/10/24 04:53:52;;;;;;;9.65;6.15;;;7.50;99.90;;;;;;2064059;28;20050;-70
2021/10/24 04:54:52;;;;;;;9.68;7.10;;;7.50;99.90;;;;;;2064289;28;20027;-70
2021/10/24 04:55:55;;;;;;;11.07;6.95;;;7.50;99.90;;;;;;2063798;28;20027;-70
2021/10/24 04:56:55;;;;;;;7.30;5.90;;;7.50;99.90;;;;;;2064090;28;20038;-70
2021/10/24 04:57:56;;;;;;;8.23;6.40;;;7.50;99.90;;;;;;2069124;28;20124;-70
2021/10/24 04:58:56;;;;;;;9.48;6.43;;;7.50;99.90;;;;;;2065570;28;20037;-70
2021/10/24 04:59:57;;;;;;;12.93;6.63;;;7.50;99.90;;;;;;2071959;28;20030;-70
2021/10/24 05:00:57;;;;;;;8.88;6.50;;;7.50;99.90;;;;;;2071956;28;20061;-70
2021/10/24 05:01:58;;;;;;;9.43;6.57;;;7.50;99.90;;;;;;2063888;28;20031;-70
2021/10/24 05:02:59;;;;;;;11.60;6.97;;;7.50;99.90;;;;;;2067793;28;20062;-70
2021/10/24 05:04:00;;;;;;;9.57;6.55;;;7.50;99.90;;;;;;2064174;28;20031;-70
2021/10/24 05:05:01;;;;;;;11.15;6.53;;;7.50;99.90;;;;;;2063493;28;20037;-70
2021/10/24 05:06:02;;;;;;;8.68;6.20;;;7.50;99.90;;;;;;2070266;28;20037;-70
2021/10/24 05:07:02;;;;;;;8.02;6.20;;;7.50;99.90;;;;;;2068032;28;20100;-70
2021/10/24 05:08:03;;;;;;;9.43;5.97;;;7.60;99.90;;;;;;2066746;28;20095;-70
2021/10/24 05:09:05;;;;;;;11.82;6.20;;;7.50;99.90;;;;;;2063283;28;20029;-70
2021/10/24 05:10:06;;;;;;;11.43;6.70;;;7.50;99.90;;;;;;2064028;28;20026;-70
2021/10/24 05:11:07;;;;;;;10.27;6.05;;;7.60;99.90;;;;;;2064030;28;20483;-70
2021/10/24 05:12:07;;;;;;;10.43;6.28;;;7.60;99.90;;;;;;2063905;28;20072;-70
2021/10/24 05:13:08;;;;;;;11.93;5.93;;;7.50;99.90;;;;;;2064740;28;20102;-70
2021/10/24 05:14:09;;;;;;;8.70;6.80;;;7.60;99.90;;;;;;2065642;28;20097;-70
2021/10/24 05:15:10;;;;;;;11.15;6.63;;;7.50;99.90;;;;;;2072153;28;20022;-70
2021/10/24 05:16:11;;;;;;;10.07;6.88;;;7.50;99.90;;;;;;2071899;28;20613;-70
2021/10/24 05:17:11;;;;;;;10.30;6.20;;;7.50;99.90;;;;;;2072115;28;20022;-70
2021/10/24 05:18:13;;;;;;;8.95;6.47;;;7.50;99.90;;;;;;2071590;28;20018;-70